Time;durP1;ratioP1;P1;durP2;ratioP2;P2;SDS_P1;SDS_P2;PMS_P1;PMS_P2;Temp;Humidity;BMP_temperature;BMP_pressure;BME280_temperature;BME280_humidity;BME280_pressure;Samples;Min_cycle;Max_cycle;Signal;HPM_P1;HPM_P2
2023/04/29 00:00:27;;;;;;;4.97;1.95;;;;;;;;;;10325549;28;20386;-63
2023/04/29 00:05:28;;;;;;;9.55;2.17;;;;;;;;;;10326882;28;20433;-61
2023/04/29 00:10:29;;;;;;;5.45;2.33;;;;;;;;;;10322621;28;20042;-58
2023/04/29 00:15:29;;;;;;;3.42;1.80;;;;;;;;;;10325546;28;20072;-60
2023/04/29 00:20:30;;;;;;;4.90;1.88;;;;;;;;;;10318843;28;20037;-57
2023/04/29 00:25:31;;;;;;;4.13;1.73;;;;;;;;;;10325446;28;20026;-58
2023/04/29 00:30:33;;;;;;;4.03;2.00;;;;;;;;;;10322558;28;20046;-57
2023/04/29 00:35:33;;;;;;;3.38;2.03;;;;;;;;;;10323843;28;20184;-59
2023/04/29 00:40:35;;;;;;;2.58;1.50;;;;;;;;;;10324233;28;20179;-58
2023/04/29 00:45:35;;;;;;;2.20;1.33;;;;;;;;;;10324127;28;20057;-60
2023/04/29 00:50:36;;;;;;;2.72;1.70;;;;;;;;;;10323495;28;20323;-58
2023/04/29 00:55:37;;;;;;;4.35;2.10;;;;;;;;;;10323869;28;20544;-58
2023/04/29 01:00:40;;;;;;;5.00;2.00;;;;;;;;;;10306741;28;20165;-57
2023/04/29 01:05:41;;;;;;;4.13;1.80;;;;;;;;;;10323226;28;20328;-57
2023/04/29 01:10:55;;;;;;;4.57;1.80;;;;;;;;;;10323819;28;20326;-58
2023/04/29 01:16:06;;;;;;;6.10;2.20;;;;;;;;;;10324108;28;20389;-58
2023/04/29 01:21:06;;;;;;;5.28;1.70;;;;;;;;;;10323748;28;20085;-57
2023/04/29 01:26:07;;;;;;;2.17;1.67;;;;;;;;;;10325609;28;20100;-58
2023/04/29 01:31:40;;;;;;;2.40;1.52;;;;;;;;;;10331802;28;20023;-58
2023/04/29 01:37:17;;;;;;;3.70;2.00;;;;;;;;;;10330898;28;20049;-58
2023/04/29 01:42:43;;;;;;;3.40;1.67;;;;;;;;;;10315923;28;20026;-57
2023/04/29 01:47:45;;;;;;;2.67;1.65;;;;;;;;;;10315408;28;20424;-57
2023/04/29 01:52:45;;;;;;;4.07;1.90;;;;;;;;;;10312276;28;20037;-57
2023/04/29 01:57:46;;;;;;;4.88;1.70;;;;;;;;;;10330040;28;20026;-57
2023/04/29 02:02:47;;;;;;;4.78;2.35;;;;;;;;;;10331243;28;20031;-60
2023/04/29 02:07:47;;;;;;;6.78;1.83;;;;;;;;;;10329535;28;20056;-60
2023/04/29 02:12:48;;;;;;;2.25;1.58;;;;;;;;;;10330549;28;20034;-63
2023/04/29 02:17:48;;;;;;;2.33;1.60;;;;;;;;;;10329388;28;20045;-63
2023/04/29 02:22:49;;;;;;;3.47;1.85;;;;;;;;;;10329123;28;20425;-57
2023/04/29 02:27:50;;;;;;;4.22;1.70;;;;;;;;;;10329421;28;20497;-58
2023/04/29 02:32:51;;;;;;;7.22;1.80;;;;;;;;;;10329005;28;20022;-57
2023/04/29 02:37:52;;;;;;;3.67;1.60;;;;;;;;;;10328122;28;20057;-58
2023/04/29 02:42:53;;;;;;;7.82;1.90;;;;;;;;;;10329481;28;20481;-58
2023/04/29 02:47:53;;;;;;;1.30;1.20;;;;;;;;;;10322053;28;20038;-59
2023/04/29 02:52:54;;;;;;;4.75;1.65;;;;;;;;;;10327496;28;20042;-60
2023/04/29 02:57:55;;;;;;;2.58;1.48;;;;;;;;;;10329644;28;20022;-63
2023/04/29 03:02:56;;;;;;;3.55;1.63;;;;;;;;;;10329890;28;20406;-59
2023/04/29 03:07:56;;;;;;;3.10;1.70;;;;;;;;;;10310622;28;20021;-58
2023/04/29 03:12:57;;;;;;;1.92;1.50;;;;;;;;;;10327386;28;20397;-57
2023/04/29 03:18:00;;;;;;;2.28;1.60;;;;;;;;;;10327314;28;20033;-58
2023/04/29 03:23:01;;;;;;;1.90;1.42;;;;;;;;;;10328362;28;20018;-57
2023/04/29 03:28:02;;;;;;;2.72;1.65;;;;;;;;;;10327070;28;20034;-56
2023/04/29 03:33:03;;;;;;;2.63;1.70;;;;;;;;;;10326956;28;20034;-62
2023/04/29 03:38:03;;;;;;;8.30;1.98;;;;;;;;;;10320305;28;20101;-61
2023/04/29 03:43:04;;;;;;;2.85;1.50;;;;;;;;;;10326768;28;20031;-57
2023/04/29 03:48:05;;;;;;;2.40;1.52;;;;;;;;;;10318482;28;20494;-62
2023/04/29 03:53:07;;;;;;;5.60;1.45;;;;;;;;;;10326188;28;20030;-57
2023/04/29 03:58:07;;;;;;;3.78;1.58;;;;;;;;;;10317007;28;20045;-56
2023/04/29 04:03:08;;;;;;;1.60;1.10;;;;;;;;;;10325846;28;20045;-59
2023/04/29 04:08:09;;;;;;;2.05;1.55;;;;;;;;;;10325938;28;20038;-62
2023/04/29 04:13:10;;;;;;;2.67;1.58;;;;;;;;;;10323851;28;20030;-59
2023/04/29 04:18:10;;;;;;;2.83;1.70;;;;;;;;;;10326161;28;20031;-64
2023/04/29 04:23:11;;;;;;;1.60;1.40;;;;;;;;;;10326301;28;20022;-57
2023/04/29 04:28:12;;;;;;;2.17;1.25;;;;;;;;;;10325753;28;20030;-63
2023/04/29 04:33:12;;;;;;;5.53;1.50;;;;;;;;;;10324132;28;20395;-63
2023/04/29 04:38:14;;;;;;;4.57;1.30;;;;;;;;;;10321237;28;20637;-64
2023/04/29 04:43:16;;;;;;;1.50;1.40;;;;;;;;;;10323960;28;20050;-63
2023/04/29 04:48:16;;;;;;;2.28;1.60;;;;;;;;;;10323641;28;20124;-65
2023/04/29 04:53:17;;;;;;;1.50;1.40;;;;;;;;;;10323803;28;20031;-62
2023/04/29 04:58:18;;;;;;;2.05;1.50;;;;;;;;;;10324340;28;20026;-64
2023/04/29 05:03:18;;;;;;;1.55;1.30;;;;;;;;;;10324420;28;20039;-60
2023/04/29 05:08:19;;;;;;;1.50;1.40;;;;;;;;;;10335088;28;20088;-65
2023/04/29 05:13:20;;;;;;;1.30;1.20;;;;;;;;;;10325455;28;20042;-63
2023/04/29 05:18:20;;;;;;;2.17;1.40;;;;;;;;;;10322922;28;20030;-62
2023/04/29 05:23:22;;;;;;;2.00;1.23;;;;;;;;;;10323648;28;20387;-63
2023/04/29 05:28:22;;;;;;;1.88;1.50;;;;;;;;;;10336784;28;20109;-64
2023/04/29 05:33:23;;;;;;;1.40;1.30;;;;;;;;;;10321706;28;20026;-64
2023/04/29 05:38:27;;;;;;;3.70;1.38;;;;;;;;;;10323590;28;20061;-62
2023/04/29 05:43:28;;;;;;;2.92;1.50;;;;;;;;;;10323016;28;20042;-62
2023/04/29 05:48:29;;;;;;;1.70;1.30;;;;;;;;;;10323379;28;20479;-57
2023/04/29 05:53:30;;;;;;;2.05;1.52;;;;;;;;;;10322901;28;20031;-58
2023/04/29 05:58:30;;;;;;;3.42;1.20;;;;;;;;;;10322829;28;20041;-59
2023/04/29 06:03:31;;;;;;;2.97;1.50;;;;;;;;;;10323654;28;20053;-58
2023/04/29 06:08:32;;;;;;;2.28;1.40;;;;;;;;;;10314748;28;20022;-60
2023/04/29 06:13:33;;;;;;;2.25;1.42;;;;;;;;;;10310739;28;20041;-61
2023/04/29 06:18:33;;;;;;;1.40;1.30;;;;;;;;;;10323406;28;20034;-60
2023/04/29 06:23:34;;;;;;;1.67;1.20;;;;;;;;;;10329747;28;20034;-57
2023/04/29 06:28:35;;;;;;;2.15;1.40;;;;;;;;;;10322930;28;20034;-57
2023/04/29 06:33:36;;;;;;;1.50;1.40;;;;;;;;;;10328925;28;20041;-58
2023/04/29 06:38:37;;;;;;;1.90;1.42;;;;;;;;;;10329397;28;20046;-58
2023/04/29 06:43:37;;;;;;;2.25;1.70;;;;;;;;;;10328983;28;20026;-56
2023/04/29 06:48:38;;;;;;;1.40;1.27;;;;;;;;;;10325482;28;20027;-61
2023/04/29 06:53:38;;;;;;;1.60;1.50;;;;;;;;;;10328095;28;20391;-54
2023/04/29 06:58:39;;;;;;;2.80;1.58;;;;;;;;;;10325800;28;20142;-57
2023/04/29 07:03:39;;;;;;;4.07;1.30;;;;;;;;;;10323005;28;20042;-57
2023/04/29 07:08:40;;;;;;;5.10;1.90;;;;;;;;;;10326513;28;20482;-59
2023/04/29 07:13:41;;;;;;;2.08;1.40;;;;;;;;;;10327504;28;20077;-57
2023/04/29 07:18:41;;;;;;;2.35;1.30;;;;;;;;;;10326749;28;20038;-57
2023/04/29 07:23:42;;;;;;;1.48;1.38;;;;;;;;;;10326661;28;20053;-59
2023/04/29 07:28:44;;;;;;;2.35;1.42;;;;;;;;;;10326054;28;20052;-57
2023/04/29 07:33:46;;;;;;;1.50;1.40;;;;;;;;;;10326287;28;20042;-55
2023/04/29 07:38:46;;;;;;;1.48;1.38;;;;;;;;;;10306353;28;20042;-55
2023/04/29 07:43:47;;;;;;;2.15;1.45;;;;;;;;;;10325028;28;20034;-56
2023/04/29 07:48:47;;;;;;;2.65;1.55;;;;;;;;;;10325649;28;20053;-56
2023/04/29 07:53:48;;;;;;;3.13;1.40;;;;;;;;;;10323351;28;20042;-57
2023/04/29 07:58:49;;;;;;;3.15;1.63;;;;;;;;;;10328040;28;20603;-58
2023/04/29 08:03:49;;;;;;;1.42;1.20;;;;;;;;;;10332053;28;20026;-57
2023/04/29 08:08:50;;;;;;;3.75;1.48;;;;;;;;;;10325323;28;20473;-61
2023/04/29 08:13:51;;;;;;;2.53;1.60;;;;;;;;;;10329410;28;20455;-57
2023/04/29 08:18:53;;;;;;;1.60;1.30;;;;;;;;;;10325089;28;20041;-62
2023/04/29 08:23:54;;;;;;;2.42;1.50;;;;;;;;;;10325140;28;20030;-61
2023/04/29 08:28:55;;;;;;;1.40;1.30;;;;;;;;;;10325160;28;20038;-56
2023/04/29 08:33:57;;;;;;;1.65;1.38;;;;;;;;;;10323727;28;20034;-56
2023/04/29 08:38:58;;;;;;;1.45;1.35;;;;;;;;;;10326330;28;20498;-59
2023/04/29 08:43:59;;;;;;;1.55;1.40;;;;;;;;;;10322885;28;20058;-59
2023/04/29 08:49:03;;;;;;;1.50;1.40;;;;;;;;;;10325518;28;20540;-60
2023/04/29 08:54:03;;;;;;;1.45;1.35;;;;;;;;;;10325026;28;20065;-57
2023/04/29 08:59:07;;;;;;;1.50;1.38;;;;;;;;;;10325529;28;20081;-59
2023/04/29 09:04:38;;;;;;;16.95;5.47;;;;;;;;;;10323870;28;20026;-60
2023/04/29 09:09:39;;;;;;;21.27;5.40;;;;;;;;;;10323270;28;20031;-63
2023/04/29 09:14:39;;;;;;;16.83;4.40;;;;;;;;;;10307034;28;20026;-64
2023/04/29 09:19:40;;;;;;;23.25;7.78;;;;;;;;;;10323873;28;20463;-63
2023/04/29 09:24:42;;;;;;;24.85;8.13;;;;;;;;;;10322787;28;20493;-64
2023/04/29 09:30:00;;;;;;;12.90;8.40;;;;;;;;;;10323454;28;20459;-60
2023/04/29 09:35:26;;;;;;;23.45;9.18;;;;;;;;;;10323450;28;20026;-63
2023/04/29 09:40:30;;;;;;;16.55;10.13;;;;;;;;;;10322720;28;20057;-61
2023/04/29 09:45:35;;;;;;;17.17;8.88;;;;;;;;;;10323371;28;20533;-62
2023/04/29 09:50:38;;;;;;;15.45;9.52;;;;;;;;;;10313311;28;20875;-62
2023/04/29 09:56:01;;;;;;;15.38;9.50;;;;;;;;;;10331501;28;20030;-63
2023/04/29 10:01:03;;;;;;;32.22;10.45;;;;;;;;;;10331292;28;20030;-64
2023/04/29 10:06:06;;;;;;;20.35;10.10;;;;;;;;;;10328613;28;20382;-64
2023/04/29 10:11:09;;;;;;;19.80;9.30;;;;;;;;;;10322464;28;20033;-62
2023/04/29 10:16:33;;;;;;;22.00;8.90;;;;;;;;;;10328692;28;20047;-63
2023/04/29 10:21:33;;;;;;;15.38;9.15;;;;;;;;;;10329780;28;20058;-63
2023/04/29 10:26:36;;;;;;;17.02;8.95;;;;;;;;;;10329128;28;20390;-65
2023/04/29 10:31:38;;;;;;;18.98;8.65;;;;;;;;;;10329637;28;20042;-49
2023/04/29 10:36:40;;;;;;;12.07;8.95;;;;;;;;;;10333794;28;20125;-52
2023/04/29 10:41:45;;;;;;;13.02;8.45;;;;;;;;;;10341713;28;20045;-52
2023/04/29 10:46:46;;;;;;;12.45;7.85;;;;;;;;;;10328073;28;20050;-52
2023/04/29 10:51:47;;;;;;;20.92;8.68;;;;;;;;;;10328574;28;20532;-56
2023/04/29 10:56:49;;;;;;;14.13;8.60;;;;;;;;;;10317397;28;20042;-56
2023/04/29 11:01:53;;;;;;;13.05;7.88;;;;;;;;;;10327182;28;20026;-54
2023/04/29 11:06:57;;;;;;;14.65;8.75;;;;;;;;;;10315822;28;20057;-57
2023/04/29 11:12:01;;;;;;;12.82;7.82;;;;;;;;;;10328102;28;20459;-52
2023/04/29 11:17:07;;;;;;;12.10;7.43;;;;;;;;;;10329258;28;20541;-52
2023/04/29 11:22:17;;;;;;;14.15;8.20;;;;;;;;;;10328195;28;20512;-52
2023/04/29 11:27:24;;;;;;;15.02;6.78;;;;;;;;;;10327944;28;20058;-54
2023/04/29 11:32:37;;;;;;;9.27;7.10;;;;;;;;;;10326422;28;20045;-53
2023/04/29 11:37:40;;;;;;;10.63;6.50;;;;;;;;;;10325233;28;20125;-50
2023/04/29 11:42:46;;;;;;;8.95;6.57;;;;;;;;;;10325368;28;20057;-55
2023/04/29 11:47:48;;;;;;;7.07;5.38;;;;;;;;;;10315254;28;20206;-54
2023/04/29 11:52:49;;;;;;;7.35;5.57;;;;;;;;;;10324482;28;20027;-56
2023/04/29 11:57:51;;;;;;;7.85;5.13;;;;;;;;;;10323360;28;20394;-54
2023/04/29 12:02:51;;;;;;;8.20;4.93;;;;;;;;;;10324871;28;20394;-58
2023/04/29 12:07:54;;;;;;;7.25;4.30;;;;;;;;;;10320012;28;20025;-54
2023/04/29 12:12:54;;;;;;;6.22;4.18;;;;;;;;;;10322153;28;20513;-55
2023/04/29 12:17:55;;;;;;;8.57;4.90;;;;;;;;;;10308149;28;20034;-53
2023/04/29 12:22:58;;;;;;;5.50;4.10;;;;;;;;;;10306266;28;20359;-60
2023/04/29 12:27:59;;;;;;;7.30;4.88;;;;;;;;;;10320752;28;20035;-59
2023/04/29 12:33:01;;;;;;;9.93;4.68;;;;;;;;;;10313838;28;20035;-52
2023/04/29 12:38:02;;;;;;;10.77;5.03;;;;;;;;;;10332058;28;20130;-59
2023/04/29 12:43:10;;;;;;;14.38;5.40;;;;;;;;;;10318270;28;20030;-52
2023/04/29 12:48:12;;;;;;;;;;;;;;;;;;10310623;28;20018;-53
2023/04/29 12:53:13;;;;;;;10.05;5.00;;;;;;;;;;10320403;28;19961;-47
2023/04/29 12:58:14;;;;;;;6.13;4.38;;;;;;;;;;10320917;28;20034;-58
2023/04/29 13:03:15;;;;;;;8.60;4.85;;;;;;;;;;10325984;28;20356;-49
2023/04/29 13:08:16;;;;;;;6.30;5.25;;;;;;;;;;10322952;28;20023;-50
2023/04/29 13:13:16;;;;;;;6.63;4.65;;;;;;;;;;10322053;28;20042;-50
2023/04/29 13:18:17;;;;;;;9.60;5.55;;;;;;;;;;10323242;28;20027;-54
2023/04/29 13:23:18;;;;;;;9.15;5.40;;;;;;;;;;10319535;28;20080;-54
2023/04/29 13:28:18;;;;;;;8.63;5.43;;;;;;;;;;10331946;28;20045;-54
2023/04/29 13:33:19;;;;;;;10.90;5.53;;;;;;;;;;10327670;28;20030;-54
2023/04/29 13:38:19;;;;;;;8.55;5.07;;;;;;;;;;10341943;28;20048;-53
2023/04/29 13:43:20;;;;;;;14.00;5.60;;;;;;;;;;10321966;28;20066;-55
2023/04/29 13:48:22;;;;;;;8.57;5.55;;;;;;;;;;10329713;28;20146;-55
2023/04/29 13:53:23;;;;;;;7.90;6.25;;;;;;;;;;10331058;28;20038;-53
2023/04/29 13:58:23;;;;;;;7.90;6.40;;;;;;;;;;10331096;28;20084;-53
2023/04/29 14:03:25;;;;;;;9.38;6.15;;;;;;;;;;10328620;28;20394;-58
2023/04/29 14:08:25;;;;;;;17.45;6.50;;;;;;;;;;10321727;28;20377;-59
2023/04/29 14:13:26;;;;;;;11.45;6.45;;;;;;;;;;10329474;28;20034;-60
2023/04/29 14:18:28;;;;;;;8.73;6.57;;;;;;;;;;10324873;28;20486;-59
2023/04/29 14:23:29;;;;;;;8.15;6.18;;;;;;;;;;10328154;28;20022;-56
2023/04/29 14:28:30;;;;;;;10.57;6.90;;;;;;;;;;10328100;28;20022;-58
2023/04/29 14:33:30;;;;;;;24.90;6.88;;;;;;;;;;10322869;28;20046;-49
2023/04/29 14:38:31;;;;;;;10.02;6.53;;;;;;;;;;10320884;28;20053;-55
2023/04/29 14:43:32;;;;;;;10.00;6.50;;;;;;;;;;10326281;28;20043;-51
2023/04/29 14:48:32;;;;;;;9.25;6.18;;;;;;;;;;10321886;28;20057;-49
2023/04/29 14:53:33;;;;;;;9.05;6.07;;;;;;;;;;10327921;28;20118;-51
2023/04/29 14:58:33;;;;;;;8.15;5.85;;;;;;;;;;10326484;28;20027;-49
2023/04/29 15:03:35;;;;;;;10.13;5.88;;;;;;;;;;10326360;28;20031;-53
2023/04/29 15:08:37;;;;;;;9.80;5.90;;;;;;;;;;10323269;28;20121;-52
2023/04/29 15:13:38;;;;;;;11.75;6.10;;;;;;;;;;10319949;28;20453;-53
2023/04/29 15:18:38;;;;;;;7.80;5.13;;;;;;;;;;10316499;28;20026;-50
2023/04/29 15:23:39;;;;;;;10.23;6.20;;;;;;;;;;10322643;28;20494;-56
2023/04/29 15:28:40;;;;;;;9.00;5.85;;;;;;;;;;10327113;28;20497;-49
2023/04/29 15:33:40;;;;;;;7.97;6.00;;;;;;;;;;10313696;28;20046;-52
2023/04/29 15:38:41;;;;;;;13.13;5.88;;;;;;;;;;10325961;28;20039;-58
2023/04/29 15:43:41;;;;;;;6.95;5.03;;;;;;;;;;10324465;28;20382;-57
2023/04/29 15:48:42;;;;;;;6.32;5.00;;;;;;;;;;10325339;28;20042;-57
2023/04/29 15:53:43;;;;;;;7.22;5.03;;;;;;;;;;10324854;28;20030;-54
2023/04/29 15:58:44;;;;;;;8.25;5.30;;;;;;;;;;10325782;28;20018;-57
2023/04/29 16:03:44;;;;;;;7.47;4.40;;;;;;;;;;10320463;28;20030;-56
2023/04/29 16:08:45;;;;;;;5.10;4.22;;;;;;;;;;10325969;28;20027;-57
2023/04/29 16:13:46;;;;;;;6.70;3.75;;;;;;;;;;10324734;28;20038;-55
2023/04/29 16:18:46;;;;;;;5.80;3.75;;;;;;;;;;10325377;28;20026;-53
2023/04/29 16:23:47;;;;;;;8.75;4.10;;;;;;;;;;10324798;28;20038;-57
2023/04/29 16:28:48;;;;;;;5.47;3.30;;;;;;;;;;10318935;28;20038;-57
2023/04/29 16:33:49;;;;;;;5.45;3.50;;;;;;;;;;10315662;28;20042;-57
2023/04/29 16:38:50;;;;;;;5.95;3.28;;;;;;;;;;10324279;28;20410;-49
2023/04/29 16:43:52;;;;;;;9.50;3.47;;;;;;;;;;10316890;28;20290;-54
2023/04/29 16:48:55;;;;;;;3.30;3.00;;;;;;;;;;10324351;28;20037;-50
2023/04/29 16:53:56;;;;;;;7.10;3.05;;;;;;;;;;10298375;28;20061;-52
2023/04/29 16:58:56;;;;;;;4.15;2.47;;;;;;;;;;10321049;28;20077;-51
2023/04/29 17:03:57;;;;;;;4.85;3.03;;;;;;;;;;10325066;28;20548;-52
2023/04/29 17:08:57;;;;;;;3.85;2.72;;;;;;;;;;10312627;28;20030;-53
2023/04/29 17:13:58;;;;;;;3.30;2.40;;;;;;;;;;10314284;28;20050;-49
2023/04/29 17:18:59;;;;;;;5.75;3.08;;;;;;;;;;10316622;28;20030;-53
2023/04/29 17:23:59;;;;;;;2.90;2.58;;;;;;;;;;10311422;28;20030;-51
2023/04/29 17:29:00;;;;;;;4.88;2.63;;;;;;;;;;10322337;28;20026;-55
2023/04/29 17:34:17;;;;;;;4.30;2.38;;;;;;;;;;10325381;28;20030;-53
2023/04/29 17:39:18;;;;;;;3.38;2.53;;;;;;;;;;10322954;28;20410;-56
2023/04/29 17:44:18;;;;;;;4.80;2.22;;;;;;;;;;10321694;28;20112;-53
2023/04/29 17:49:19;;;;;;;2.90;2.60;;;;;;;;;;10321298;28;20025;-54
2023/04/29 17:54:20;;;;;;;2.67;2.47;;;;;;;;;;10319753;28;20039;-56
2023/04/29 17:59:20;;;;;;;2.50;2.30;;;;;;;;;;10323403;28;20046;-58
2023/04/29 18:04:21;;;;;;;8.30;3.17;;;;;;;;;;10315413;28;20041;-57
2023/04/29 18:09:22;;;;;;;19.67;4.05;;;;;;;;;;10318628;28;20383;-59
2023/04/29 18:14:23;;;;;;;18.67;4.13;;;;;;;;;;10327421;28;20034;-56
2023/04/29 18:19:24;;;;;;;12.18;3.67;;;;;;;;;;10328581;28;20053;-58
2023/04/29 18:24:25;;;;;;;7.35;3.33;;;;;;;;;;10327458;28;20045;-57
2023/04/29 18:29:25;;;;;;;8.32;2.97;;;;;;;;;;10335664;28;20041;-59
2023/04/29 18:34:26;;;;;;;6.57;2.90;;;;;;;;;;10338537;28;20034;-57
2023/04/29 18:39:27;;;;;;;4.05;2.80;;;;;;;;;;10316081;28;20053;-52
2023/04/29 18:44:27;;;;;;;7.30;2.83;;;;;;;;;;10328494;28;20046;-53
2023/04/29 18:49:29;;;;;;;9.88;3.30;;;;;;;;;;10325355;28;20034;-56
2023/04/29 18:54:30;;;;;;;14.73;2.92;;;;;;;;;;10327122;28;20061;-51
2023/04/29 18:59:34;;;;;;;6.22;2.85;;;;;;;;;;10322642;28;20398;-52
2023/04/29 19:04:35;;;;;;;4.80;2.67;;;;;;;;;;10324379;28;20174;-54
2023/04/29 19:09:35;;;;;;;7.53;2.63;;;;;;;;;;10327772;28;20087;-56
2023/04/29 19:14:37;;;;;;;8.15;2.92;;;;;;;;;;10318473;28;20088;-53
2023/04/29 19:19:37;;;;;;;7.03;3.38;;;;;;;;;;10310122;28;20022;-52
2023/04/29 19:24:40;;;;;;;8.85;2.95;;;;;;;;;;10327441;28;20030;-49
2023/04/29 19:29:41;;;;;;;7.20;2.75;;;;;;;;;;10326131;28;20089;-49
2023/04/29 19:34:42;;;;;;;5.80;2.58;;;;;;;;;;10322078;28;20038;-49
2023/04/29 19:39:42;;;;;;;14.27;3.38;;;;;;;;;;10325820;28;20057;-52
2023/04/29 19:44:43;;;;;;;12.88;3.38;;;;;;;;;;10326327;28;20035;-49
2023/04/29 19:49:44;;;;;;;12.88;3.42;;;;;;;;;;10323601;28;20034;-54
2023/04/29 19:54:44;;;;;;;9.50;3.30;;;;;;;;;;10299225;28;20038;-52
2023/04/29 19:59:45;;;;;;;10.10;2.53;;;;;;;;;;10291592;28;20799;-55
2023/04/29 20:04:47;;;;;;;8.93;3.40;;;;;;;;;;10303042;28;20385;-54
2023/04/29 20:09:48;;;;;;;5.38;2.80;;;;;;;;;;10294771;28;20101;-55
2023/04/29 20:14:48;;;;;;;13.02;3.60;;;;;;;;;;10294806;28;20038;-60
2023/04/29 20:19:49;;;;;;;12.98;3.15;;;;;;;;;;10298465;28;20042;-58
2023/04/29 20:24:49;;;;;;;6.35;3.05;;;;;;;;;;10303153;28;20117;-51
2023/04/29 20:29:50;;;;;;;5.93;3.35;;;;;;;;;;10289009;28;20033;-50
2023/04/29 20:34:52;;;;;;;9.40;3.00;;;;;;;;;;10295808;28;20042;-52
2023/04/29 20:39:53;;;;;;;6.53;2.83;;;;;;;;;;10299237;28;20047;-56
2023/04/29 20:44:53;;;;;;;6.05;3.05;;;;;;;;;;10300282;28;20027;-51
2023/04/29 20:49:54;;;;;;;6.97;3.45;;;;;;;;;;10298403;28;20030;-50
2023/04/29 20:54:55;;;;;;;8.15;3.28;;;;;;;;;;10295267;28;20203;-59
2023/04/29 20:59:56;;;;;;;6.35;3.55;;;;;;;;;;10291758;28;20545;-56
2023/04/29 21:04:57;;;;;;;8.02;3.22;;;;;;;;;;10288849;28;20092;-53
2023/04/29 21:09:57;;;;;;;5.43;3.35;;;;;;;;;;10292473;28;20031;-55
2023/04/29 21:14:58;;;;;;;4.50;3.10;;;;;;;;;;10296369;28;20042;-53
2023/04/29 21:19:58;;;;;;;8.27;3.47;;;;;;;;;;10293491;28;20042;-50
2023/04/29 21:24:59;;;;;;;3.85;3.17;;;;;;;;;;10299554;28;20038;-53
2023/04/29 21:30:00;;;;;;;6.70;3.80;;;;;;;;;;10318316;28;20275;-50
2023/04/29 21:35:01;;;;;;;5.80;3.33;;;;;;;;;;10315522;28;20049;-56
2023/04/29 21:40:03;;;;;;;5.57;3.40;;;;;;;;;;10321238;28;20505;-56
2023/04/29 21:45:04;;;;;;;6.25;3.67;;;;;;;;;;10308769;28;20117;-52
2023/04/29 21:50:07;;;;;;;15.27;3.10;;;;;;;;;;10309844;28;20070;-52
2023/04/29 21:55:08;;;;;;;11.10;3.55;;;;;;;;;;10331160;28;20463;-49
2023/04/29 22:00:19;;;;;;;8.65;3.40;;;;;;;;;;10332467;28;20045;-49
2023/04/29 22:05:20;;;;;;;8.90;2.60;;;;;;;;;;10320584;28;20092;-51
2023/04/29 22:10:20;;;;;;;5.43;3.58;;;;;;;;;;10327704;28;20089;-51
2023/04/29 22:15:22;;;;;;;9.55;3.30;;;;;;;;;;10330245;28;20440;-50
2023/04/29 22:20:22;;;;;;;9.13;3.70;;;;;;;;;;10329580;28;20034;-55
2023/04/29 22:25:23;;;;;;;9.90;3.28;;;;;;;;;;10331060;28;20475;-50
2023/04/29 22:30:24;;;;;;;7.07;3.35;;;;;;;;;;10325466;28;20096;-49
2023/04/29 22:35:24;;;;;;;3.97;2.88;;;;;;;;;;10330052;28;20068;-52
2023/04/29 22:40:25;;;;;;;8.15;2.53;;;;;;;;;;10333341;28;20042;-52
2023/04/29 22:45:25;;;;;;;8.57;3.03;;;;;;;;;;10336907;28;20022;-50
2023/04/29 22:50:26;;;;;;;4.35;2.83;;;;;;;;;;10337656;28;20030;-49
2023/04/29 22:55:27;;;;;;;6.13;2.45;;;;;;;;;;10335844;28;20038;-49
2023/04/29 23:00:27;;;;;;;8.63;3.45;;;;;;;;;;10340054;28;20025;-50
2023/04/29 23:05:28;;;;;;;10.38;2.70;;;;;;;;;;10330401;28;20030;-49
2023/04/29 23:10:34;;;;;;;8.30;2.60;;;;;;;;;;10352848;28;20040;-49
2023/04/29 23:15:35;;;;;;;5.00;2.75;;;;;;;;;;10355849;28;20025;-49
2023/04/29 23:20:36;;;;;;;3.67;2.50;;;;;;;;;;10361150;28;20022;-51
2023/04/29 23:25:36;;;;;;;5.40;2.90;;;;;;;;;;10356512;28;20018;-49
2023/04/29 23:30:37;;;;;;;6.85;3.15;;;;;;;;;;10327371;28;20030;-49
2023/04/29 23:35:38;;;;;;;4.43;2.80;;;;;;;;;;10331293;28;20081;-49
2023/04/29 23:40:38;;;;;;;6.93;3.10;;;;;;;;;;10319985;28;20178;-50
2023/04/29 23:45:39;;;;;;;12.25;2.65;;;;;;;;;;10330970;28;20038;-50
2023/04/29 23:50:40;;;;;;;9.05;2.88;;;;;;;;;;10345576;28;20030;-49
2023/04/29 23:55:41;;;;;;;3.70;2.70;;;;;;;;;;10337532;28;20080;-59
